sensor_id;sensor_type;location;lat;lon;timestamp;pressure;altitude;pressure_sealevel;temperature;humidity
59417;BME280;45222;52.458;20.914;2023-04-07T00:01:39;100677.19;;;3.48;94.19
59417;BME280;45222;52.458;20.914;2023-04-07T00:05:24;100672.59;;;3.51;94.23
59417;BME280;45222;52.458;20.914;2023-04-07T00:09:10;100667.80;;;3.53;94.34
59417;BME280;45222;52.458;20.914;2023-04-07T00:12:55;100667.05;;;3.56;94.37
59417;BME280;45222;52.458;20.914;2023-04-07T00:16:40;100664.57;;;3.58;94.56
59417;BME280;45222;52.458;20.914;2023-04-07T00:20:25;100664.56;;;3.59;94.58
59417;BME280;45222;52.458;20.914;2023-04-07T00:24:10;100659.21;;;3.63;94.65
59417;BME280;45222;52.458;20.914;2023-04-07T00:27:55;100656.70;;;3.66;94.82
59417;BME280;45222;52.458;20.914;2023-04-07T00:31:40;100658.42;;;3.69;94.64
59417;BME280;45222;52.458;20.914;2023-04-07T00:35:26;100655.49;;;3.75;94.66
59417;BME280;45222;52.458;20.914;2023-04-07T00:39:11;100652.31;;;3.78;94.60
59417;BME280;45222;52.458;20.914;2023-04-07T00:42:56;100648.59;;;3.79;94.54
59417;BME280;45222;52.458;20.914;2023-04-07T00:46:42;100644.70;;;3.81;94.69
59417;BME280;45222;52.458;20.914;2023-04-07T00:50:27;100641.30;;;3.83;94.94
59417;BME280;45222;52.458;20.914;2023-04-07T00:54:12;100636.48;;;3.87;94.90
59417;BME280;45222;52.458;20.914;2023-04-07T00:57:58;100636.20;;;3.93;94.86
59417;BME280;45222;52.458;20.914;2023-04-07T01:01:46;100636.09;;;4.01;94.91
59417;BME280;45222;52.458;20.914;2023-04-07T01:05:42;100631.67;;;4.02;94.86
59417;BME280;45222;52.458;20.914;2023-04-07T01:09:37;100636.23;;;4.02;94.64
59417;BME280;45222;52.458;20.914;2023-04-07T01:13:29;100633.75;;;4.04;94.52
59417;BME280;45222;52.458;20.914;2023-04-07T01:17:17;100633.71;;;4.06;94.54
59417;BME280;45222;52.458;20.914;2023-04-07T01:21:04;100632.26;;;4.10;94.62
59417;BME280;45222;52.458;20.914;2023-04-07T01:25:25;100633.07;;;4.12;94.77
59417;BME280;45222;52.458;20.914;2023-04-07T01:29:29;100632.73;;;4.12;95.03
59417;BME280;45222;52.458;20.914;2023-04-07T01:33:17;100630.39;;;4.14;94.87
59417;BME280;45222;52.458;20.914;2023-04-07T01:37:03;100626.29;;;4.18;94.90
59417;BME280;45222;52.458;20.914;2023-04-07T01:40:49;100626.94;;;4.21;95.66
59417;BME280;45222;52.458;20.914;2023-04-07T01:44:35;100627.38;;;4.26;95.34
59417;BME280;45222;52.458;20.914;2023-04-07T01:48:20;100621.34;;;4.28;95.36
59417;BME280;45222;52.458;20.914;2023-04-07T01:52:07;100617.41;;;4.32;95.46
59417;BME280;45222;52.458;20.914;2023-04-07T01:55:54;100615.62;;;4.34;95.55
59417;BME280;45222;52.458;20.914;2023-04-07T01:59:39;100609.96;;;4.35;95.68
59417;BME280;45222;52.458;20.914;2023-04-07T02:03:33;100607.29;;;4.37;95.84
59417;BME280;45222;52.458;20.914;2023-04-07T02:07:24;100606.13;;;4.42;95.85
59417;BME280;45222;52.458;20.914;2023-04-07T02:11:12;100607.49;;;4.44;95.89
59417;BME280;45222;52.458;20.914;2023-04-07T02:15:00;100607.45;;;4.46;96.20
59417;BME280;45222;52.458;20.914;2023-04-07T02:18:47;100613.06;;;4.47;96.40
59417;BME280;45222;52.458;20.914;2023-04-07T02:22:33;100609.63;;;4.53;96.44
59417;BME280;45222;52.458;20.914;2023-04-07T02:26:19;100605.46;;;4.58;96.06
59417;BME280;45222;52.458;20.914;2023-04-07T02:30:06;100606.75;;;4.64;96.22
59417;BME280;45222;52.458;20.914;2023-04-07T02:33:52;100604.63;;;4.64;96.05
59417;BME280;45222;52.458;20.914;2023-04-07T02:37:37;100600.21;;;4.65;96.25
59417;BME280;45222;52.458;20.914;2023-04-07T02:41:22;100604.90;;;4.68;96.02
59417;BME280;45222;52.458;20.914;2023-04-07T02:45:09;100603.92;;;4.73;96.02
59417;BME280;45222;52.458;20.914;2023-04-07T02:48:55;100600.54;;;4.75;96.26
59417;BME280;45222;52.458;20.914;2023-04-07T02:52:40;100601.04;;;4.76;96.16
59417;BME280;45222;52.458;20.914;2023-04-07T02:56:25;100606.44;;;4.80;96.17
59417;BME280;45222;52.458;20.914;2023-04-07T03:00:13;100604.39;;;4.84;96.31
59417;BME280;45222;52.458;20.914;2023-04-07T03:03:58;100607.89;;;4.86;96.13
59417;BME280;45222;52.458;20.914;2023-04-07T03:07:43;100605.56;;;4.88;95.95
59417;BME280;45222;52.458;20.914;2023-04-07T03:11:28;100605.70;;;4.89;95.85
59417;BME280;45222;52.458;20.914;2023-04-07T03:15:14;100608.86;;;4.91;95.76
59417;BME280;45222;52.458;20.914;2023-04-07T03:18:59;100613.89;;;4.93;95.88
59417;BME280;45222;52.458;20.914;2023-04-07T03:22:44;100613.67;;;4.96;95.99
59417;BME280;45222;52.458;20.914;2023-04-07T03:26:30;100613.46;;;4.97;95.89
59417;BME280;45222;52.458;20.914;2023-04-07T03:30:16;100609.59;;;4.97;95.83
59417;BME280;45222;52.458;20.914;2023-04-07T03:34:01;100608.34;;;4.98;95.72
59417;BME280;45222;52.458;20.914;2023-04-07T03:37:46;100612.02;;;4.98;95.80
59417;BME280;45222;52.458;20.914;2023-04-07T03:41:31;100611.30;;;5.00;95.86
59417;BME280;45222;52.458;20.914;2023-04-07T03:45:17;100609.34;;;5.01;95.89
59417;BME280;45222;52.458;20.914;2023-04-07T03:49:02;100612.28;;;5.03;95.97
59417;BME280;45222;52.458;20.914;2023-04-07T03:52:47;100613.14;;;5.04;95.90
59417;BME280;45222;52.458;20.914;2023-04-07T03:56:32;100613.66;;;5.04;95.93
59417;BME280;45222;52.458;20.914;2023-04-07T04:00:18;100611.16;;;5.06;95.93
59417;BME280;45222;52.458;20.914;2023-04-07T04:04:04;100613.38;;;5.09;95.85
59417;BME280;45222;52.458;20.914;2023-04-07T04:07:49;100614.39;;;5.12;95.94
59417;BME280;45222;52.458;20.914;2023-04-07T04:11:36;100615.86;;;5.17;95.87
59417;BME280;45222;52.458;20.914;2023-04-07T04:15:21;100621.83;;;5.18;95.95
59417;BME280;45222;52.458;20.914;2023-04-07T04:19:07;100625.88;;;5.18;95.76
59417;BME280;45222;52.458;20.914;2023-04-07T04:22:52;100628.19;;;5.18;95.73
59417;BME280;45222;52.458;20.914;2023-04-07T04:26:37;100638.90;;;5.20;95.73
59417;BME280;45222;52.458;20.914;2023-04-07T04:30:22;100636.90;;;5.22;95.75
59417;BME280;45222;52.458;20.914;2023-04-07T04:34:07;100639.48;;;5.25;95.83
59417;BME280;45222;52.458;20.914;2023-04-07T04:37:53;100642.24;;;5.28;95.63
59417;BME280;45222;52.458;20.914;2023-04-07T04:41:38;100635.70;;;5.29;96.06
59417;BME280;45222;52.458;20.914;2023-04-07T04:45:23;100641.54;;;5.28;96.20
59417;BME280;45222;52.458;20.914;2023-04-07T04:49:09;100641.34;;;5.29;96.12
59417;BME280;45222;52.458;20.914;2023-04-07T04:52:54;100641.83;;;5.31;96.07
59417;BME280;45222;52.458;20.914;2023-04-07T04:56:39;100641.04;;;5.34;96.17
59417;BME280;45222;52.458;20.914;2023-04-07T05:00:26;100642.33;;;5.40;96.11
59417;BME280;45222;52.458;20.914;2023-04-07T05:04:11;100643.02;;;5.41;96.28
59417;BME280;45222;52.458;20.914;2023-04-07T05:07:56;100641.15;;;5.45;96.15
59417;BME280;45222;52.458;20.914;2023-04-07T05:11:41;100641.50;;;5.53;96.07
59417;BME280;45222;52.458;20.914;2023-04-07T05:15:26;100642.69;;;5.55;95.65
59417;BME280;45222;52.458;20.914;2023-04-07T05:19:12;100639.02;;;5.54;95.83
59417;BME280;45222;52.458;20.914;2023-04-07T05:22:57;100641.58;;;5.57;95.83
59417;BME280;45222;52.458;20.914;2023-04-07T05:26:42;100641.86;;;5.60;95.75
59417;BME280;45222;52.458;20.914;2023-04-07T05:30:27;100641.65;;;5.61;95.72
59417;BME280;45222;52.458;20.914;2023-04-07T05:34:12;100640.02;;;5.63;95.65
59417;BME280;45222;52.458;20.914;2023-04-07T05:37:57;100640.60;;;5.69;95.70
59417;BME280;45222;52.458;20.914;2023-04-07T05:41:43;100646.83;;;5.73;95.70
59417;BME280;45222;52.458;20.914;2023-04-07T05:45:29;100644.31;;;5.76;95.65
59417;BME280;45222;52.458;20.914;2023-04-07T05:49:14;100648.17;;;5.77;95.68
59417;BME280;45222;52.458;20.914;2023-04-07T05:52:59;100647.40;;;5.79;95.43
59417;BME280;45222;52.458;20.914;2023-04-07T05:56:45;100645.23;;;5.81;95.44
59417;BME280;45222;52.458;20.914;2023-04-07T06:00:31;100642.41;;;5.81;95.67
59417;BME280;45222;52.458;20.914;2023-04-07T06:04:16;100642.95;;;5.81;95.61
59417;BME280;45222;52.458;20.914;2023-04-07T06:08:01;100643.83;;;5.81;95.67
59417;BME280;45222;52.458;20.914;2023-04-07T06:11:46;100640.20;;;5.85;95.75
59417;BME280;45222;52.458;20.914;2023-04-07T06:15:32;100641.08;;;5.93;95.60
59417;BME280;45222;52.458;20.914;2023-04-07T06:19:17;100638.52;;;5.97;95.85
59417;BME280;45222;52.458;20.914;2023-04-07T06:23:02;100638.70;;;6.05;95.75
59417;BME280;45222;52.458;20.914;2023-04-07T06:26:47;100636.35;;;6.07;95.70
59417;BME280;45222;52.458;20.914;2023-04-07T06:30:33;100635.04;;;6.10;95.69
59417;BME280;45222;52.458;20.914;2023-04-07T06:34:19;100639.36;;;6.13;95.87
59417;BME280;45222;52.458;20.914;2023-04-07T06:38:04;100636.98;;;6.23;95.90
59417;BME280;45222;52.458;20.914;2023-04-07T06:41:49;100631.35;;;6.36;95.78
59417;BME280;45222;52.458;20.914;2023-04-07T06:45:40;100633.29;;;6.49;95.70
59417;BME280;45222;52.458;20.914;2023-04-07T06:49:34;100631.09;;;6.65;95.56
59417;BME280;45222;52.458;20.914;2023-04-07T06:53:19;100633.27;;;6.82;95.39
59417;BME280;45222;52.458;20.914;2023-04-07T06:57:05;100631.06;;;6.97;95.07
59417;BME280;45222;52.458;20.914;2023-04-07T07:00:55;100632.48;;;7.09;94.85
59417;BME280;45222;52.458;20.914;2023-04-07T07:04:40;100633.25;;;7.19;94.78
59417;BME280;45222;52.458;20.914;2023-04-07T07:08:26;100636.61;;;7.30;94.37
59417;BME280;45222;52.458;20.914;2023-04-07T07:12:16;100629.61;;;7.39;94.00
59417;BME280;45222;52.458;20.914;2023-04-07T07:16:01;100630.92;;;7.49;93.98
59417;BME280;45222;52.458;20.914;2023-04-07T07:19:47;100633.23;;;7.59;93.66
59417;BME280;45222;52.458;20.914;2023-04-07T07:23:32;100629.89;;;7.64;93.58
59417;BME280;45222;52.458;20.914;2023-04-07T07:27:18;100631.73;;;7.68;93.33
59417;BME280;45222;52.458;20.914;2023-04-07T07:31:09;100634.27;;;7.66;93.10
59417;BME280;45222;52.458;20.914;2023-04-07T07:34:54;100635.45;;;7.67;93.17
59417;BME280;45222;52.458;20.914;2023-04-07T07:38:39;100639.55;;;7.67;92.95
59417;BME280;45222;52.458;20.914;2023-04-07T07:42:25;100643.02;;;7.69;92.98
59417;BME280;45222;52.458;20.914;2023-04-07T07:46:12;100641.58;;;7.70;92.95
59417;BME280;45222;52.458;20.914;2023-04-07T07:49:57;100646.59;;;7.73;93.02
59417;BME280;45222;52.458;20.914;2023-04-07T07:53:42;100646.53;;;7.75;92.62
59417;BME280;45222;52.458;20.914;2023-04-07T07:57:28;100650.29;;;7.74;92.70
59417;BME280;45222;52.458;20.914;2023-04-07T08:01:15;100651.55;;;7.67;92.93
59417;BME280;45222;52.458;20.914;2023-04-07T08:05:00;100658.02;;;7.65;93.13
59417;BME280;45222;52.458;20.914;2023-04-07T08:08:46;100661.61;;;7.63;93.23
59417;BME280;45222;52.458;20.914;2023-04-07T08:12:31;100662.60;;;7.60;93.08
59417;BME280;45222;52.458;20.914;2023-04-07T08:16:17;100659.88;;;7.56;93.27
59417;BME280;45222;52.458;20.914;2023-04-07T08:20:05;100660.86;;;7.58;93.39
59417;BME280;45222;52.458;20.914;2023-04-07T08:23:51;100664.29;;;7.63;93.28
59417;BME280;45222;52.458;20.914;2023-04-07T08:27:37;100660.66;;;7.59;93.42
59417;BME280;45222;52.458;20.914;2023-04-07T08:31:22;100661.95;;;7.58;93.18
59417;BME280;45222;52.458;20.914;2023-04-07T08:35:08;100659.16;;;7.57;93.35
59417;BME280;45222;52.458;20.914;2023-04-07T08:38:53;100663.63;;;7.55;93.39
59417;BME280;45222;52.458;20.914;2023-04-07T08:42:40;100668.15;;;7.57;93.58
59417;BME280;45222;52.458;20.914;2023-04-07T08:46:26;100655.31;;;7.61;93.73
59417;BME280;45222;52.458;20.914;2023-04-07T08:50:16;100655.95;;;7.69;93.80
59417;BME280;45222;52.458;20.914;2023-04-07T08:54:05;100652.75;;;7.80;93.84
59417;BME280;45222;52.458;20.914;2023-04-07T08:57:54;100652.75;;;7.97;93.96
59417;BME280;45222;52.458;20.914;2023-04-07T09:01:40;100652.86;;;8.10;93.79
59417;BME280;45222;52.458;20.914;2023-04-07T09:05:26;100648.27;;;8.19;93.62
59417;BME280;45222;52.458;20.914;2023-04-07T09:09:11;100644.27;;;8.32;93.52
59417;BME280;45222;52.458;20.914;2023-04-07T09:12:57;100640.30;;;8.50;93.38
59417;BME280;45222;52.458;20.914;2023-04-07T09:16:43;100642.13;;;8.74;93.10
59417;BME280;45222;52.458;20.914;2023-04-07T09:20:54;100638.93;;;8.98;92.71
59417;BME280;45222;52.458;20.914;2023-04-07T09:24:40;100638.83;;;9.24;92.11
59417;BME280;45222;52.458;20.914;2023-04-07T09:28:38;100634.49;;;9.45;91.55
59417;BME280;45222;52.458;20.914;2023-04-07T09:32:35;100635.32;;;9.73;90.97
59417;BME280;45222;52.458;20.914;2023-04-07T09:36:24;100633.56;;;10.07;91.20
59417;BME280;45222;52.458;20.914;2023-04-07T09:40:25;100636.04;;;10.41;90.55
59417;BME280;45222;52.458;20.914;2023-04-07T09:44:11;100636.77;;;10.57;89.81
59417;BME280;45222;52.458;20.914;2023-04-07T09:47:56;100638.79;;;10.64;89.33
59417;BME280;45222;52.458;20.914;2023-04-07T09:51:52;100636.90;;;10.74;88.44
59417;BME280;45222;52.458;20.914;2023-04-07T09:55:39;100635.05;;;10.88;88.95
59417;BME280;45222;52.458;20.914;2023-04-07T09:59:25;100632.14;;;11.01;87.46
59417;BME280;45222;52.458;20.914;2023-04-07T10:03:11;100629.79;;;11.06;87.30
59417;BME280;45222;52.458;20.914;2023-04-07T10:06:58;100635.60;;;11.15;87.13
59417;BME280;45222;52.458;20.914;2023-04-07T10:10:44;100633.30;;;11.22;86.62
59417;BME280;45222;52.458;20.914;2023-04-07T10:14:31;100634.37;;;11.30;86.63
59417;BME280;45222;52.458;20.914;2023-04-07T10:18:17;100635.05;;;11.49;86.20
59417;BME280;45222;52.458;20.914;2023-04-07T10:22:06;100631.06;;;11.62;85.24
59417;BME280;45222;52.458;20.914;2023-04-07T10:25:54;100630.39;;;11.65;85.34
59417;BME280;45222;52.458;20.914;2023-04-07T10:29:42;100634.22;;;11.67;85.34
59417;BME280;45222;52.458;20.914;2023-04-07T10:33:45;100638.89;;;11.70;85.45
59417;BME280;45222;52.458;20.914;2023-04-07T10:37:31;100640.71;;;11.65;84.84
59417;BME280;45222;52.458;20.914;2023-04-07T10:41:34;100645.21;;;11.64;84.57
59417;BME280;45222;52.458;20.914;2023-04-07T10:45:52;100644.27;;;11.68;84.55
59417;BME280;45222;52.458;20.914;2023-04-07T10:49:39;100647.79;;;11.73;84.48
59417;BME280;45222;52.458;20.914;2023-04-07T10:54:14;100648.51;;;11.73;84.52
59417;BME280;45222;52.458;20.914;2023-04-07T10:58:20;100653.48;;;11.66;84.20
59417;BME280;45222;52.458;20.914;2023-04-07T11:02:30;100656.36;;;11.58;84.58
59417;BME280;45222;52.458;20.914;2023-04-07T11:06:16;100662.53;;;11.52;84.35
59417;BME280;45222;52.458;20.914;2023-04-07T11:10:10;100665.07;;;11.51;84.55
59417;BME280;45222;52.458;20.914;2023-04-07T11:13:55;100667.73;;;11.51;84.83
59417;BME280;45222;52.458;20.914;2023-04-07T11:17:40;100669.38;;;11.47;85.30
59417;BME280;45222;52.458;20.914;2023-04-07T11:21:26;100669.94;;;11.34;85.22
59417;BME280;45222;52.458;20.914;2023-04-07T11:25:23;100671.17;;;11.23;85.66
59417;BME280;45222;52.458;20.914;2023-04-07T11:29:11;100673.61;;;11.17;86.29
59417;BME280;45222;52.458;20.914;2023-04-07T11:32:57;100670.39;;;11.17;86.38
59417;BME280;45222;52.458;20.914;2023-04-07T11:36:43;100669.55;;;11.12;86.64
59417;BME280;45222;52.458;20.914;2023-04-07T11:40:33;100667.52;;;11.06;86.90
59417;BME280;45222;52.458;20.914;2023-04-07T11:44:18;100671.36;;;11.08;86.79
59417;BME280;45222;52.458;20.914;2023-04-07T11:48:04;100673.64;;;11.08;86.54
59417;BME280;45222;52.458;20.914;2023-04-07T11:51:57;100669.46;;;11.13;86.62
59417;BME280;45222;52.458;20.914;2023-04-07T11:55:43;100666.55;;;11.19;86.21
59417;BME280;45222;52.458;20.914;2023-04-07T11:59:28;100670.69;;;11.26;86.32
59417;BME280;45222;52.458;20.914;2023-04-07T12:03:13;100668.52;;;11.31;85.78
59417;BME280;45222;52.458;20.914;2023-04-07T12:07:08;100666.23;;;11.30;85.69
59417;BME280;45222;52.458;20.914;2023-04-07T12:11:03;100664.42;;;11.23;85.59
59417;BME280;45222;52.458;20.914;2023-04-07T12:14:48;100663.89;;;11.22;85.73
59417;BME280;45222;52.458;20.914;2023-04-07T12:18:34;100665.30;;;11.31;85.67
59417;BME280;45222;52.458;20.914;2023-04-07T12:22:20;100671.41;;;11.49;85.93
59417;BME280;45222;52.458;20.914;2023-04-07T12:26:06;100667.63;;;11.75;85.97
59417;BME280;45222;52.458;20.914;2023-04-07T12:29:51;100661.42;;;12.01;84.50
59417;BME280;45222;52.458;20.914;2023-04-07T12:33:36;100664.12;;;12.26;83.77
59417;BME280;45222;52.458;20.914;2023-04-07T12:37:21;100668.09;;;12.46;82.80
59417;BME280;45222;52.458;20.914;2023-04-07T12:41:07;100664.36;;;12.52;81.90
59417;BME280;45222;52.458;20.914;2023-04-07T12:44:52;100666.96;;;12.50;81.36
59417;BME280;45222;52.458;20.914;2023-04-07T12:48:37;100667.88;;;12.46;81.11
59417;BME280;45222;52.458;20.914;2023-04-07T12:52:22;100667.73;;;12.32;81.03
59417;BME280;45222;52.458;20.914;2023-04-07T12:56:07;100668.89;;;12.12;81.46
59417;BME280;45222;52.458;20.914;2023-04-07T12:59:53;100676.92;;;11.90;81.76
59417;BME280;45222;52.458;20.914;2023-04-07T13:03:38;100681.52;;;11.69;82.66
59417;BME280;45222;52.458;20.914;2023-04-07T13:07:23;100690.36;;;11.47;83.57
59417;BME280;45222;52.458;20.914;2023-04-07T13:11:08;100698.87;;;11.25;84.20
59417;BME280;45222;52.458;20.914;2023-04-07T13:14:54;100704.63;;;11.08;84.81
59417;BME280;45222;52.458;20.914;2023-04-07T13:18:39;100708.99;;;10.89;86.00
59417;BME280;45222;52.458;20.914;2023-04-07T13:22:24;100713.61;;;10.78;86.84
59417;BME280;45222;52.458;20.914;2023-04-07T13:26:10;100719.59;;;10.67;87.53
59417;BME280;45222;52.458;20.914;2023-04-07T13:29:55;100725.02;;;10.56;88.23
59417;BME280;45222;52.458;20.914;2023-04-07T13:33:40;100731.18;;;10.45;88.54
59417;BME280;45222;52.458;20.914;2023-04-07T13:37:25;100728.20;;;10.39;88.38
59417;BME280;45222;52.458;20.914;2023-04-07T13:41:10;100726.25;;;10.39;88.46
59417;BME280;45222;52.458;20.914;2023-04-07T13:45:01;100731.83;;;10.47;88.76
59417;BME280;45222;52.458;20.914;2023-04-07T13:48:54;100724.85;;;10.56;88.77
59417;BME280;45222;52.458;20.914;2023-04-07T13:52:41;100721.64;;;10.65;88.68
59417;BME280;45222;52.458;20.914;2023-04-07T13:56:27;100727.02;;;10.80;88.96
59417;BME280;45222;52.458;20.914;2023-04-07T14:00:14;100723.56;;;10.98;88.65
59417;BME280;45222;52.458;20.914;2023-04-07T14:04:00;100729.02;;;11.19;88.25
59417;BME280;45222;52.458;20.914;2023-04-07T14:07:46;100730.19;;;11.41;87.92
59417;BME280;45222;52.458;20.914;2023-04-07T14:11:33;100726.08;;;11.52;87.58
59417;BME280;45222;52.458;20.914;2023-04-07T14:15:18;100728.73;;;11.60;86.96
59417;BME280;45222;52.458;20.914;2023-04-07T14:19:05;100730.63;;;11.66;86.58
59417;BME280;45222;52.458;20.914;2023-04-07T14:22:50;100731.27;;;11.56;84.89
59417;BME280;45222;52.458;20.914;2023-04-07T14:26:35;100737.85;;;11.45;84.56
59417;BME280;45222;52.458;20.914;2023-04-07T14:30:21;100738.15;;;11.38;84.38
59417;BME280;45222;52.458;20.914;2023-04-07T14:34:06;100739.75;;;11.34;83.90
59417;BME280;45222;52.458;20.914;2023-04-07T14:37:52;100743.80;;;11.35;83.69
59417;BME280;45222;52.458;20.914;2023-04-07T14:41:39;100746.58;;;11.40;83.57
59417;BME280;45222;52.458;20.914;2023-04-07T14:45:24;100747.95;;;11.42;82.91
59417;BME280;45222;52.458;20.914;2023-04-07T14:49:09;100750.40;;;11.35;82.55
59417;BME280;45222;52.458;20.914;2023-04-07T14:52:56;100755.45;;;11.30;82.49
59417;BME280;45222;52.458;20.914;2023-04-07T14:56:41;100756.21;;;11.24;82.13
59417;BME280;45222;52.458;20.914;2023-04-07T15:00:27;100761.51;;;11.21;81.99
59417;BME280;45222;52.458;20.914;2023-04-07T15:04:12;100758.95;;;11.19;81.70
59417;BME280;45222;52.458;20.914;2023-04-07T15:07:57;100757.16;;;11.19;81.26
59417;BME280;45222;52.458;20.914;2023-04-07T15:11:43;100756.79;;;11.20;80.67
59417;BME280;45222;52.458;20.914;2023-04-07T15:15:32;100765.95;;;11.22;79.82
59417;BME280;45222;52.458;20.914;2023-04-07T15:19:19;100768.31;;;11.21;79.29
59417;BME280;45222;52.458;20.914;2023-04-07T15:23:04;100770.40;;;11.18;79.02
59417;BME280;45222;52.458;20.914;2023-04-07T15:26:49;100776.78;;;11.18;79.41
59417;BME280;45222;52.458;20.914;2023-04-07T15:30:34;100782.58;;;11.12;79.00
59417;BME280;45222;52.458;20.914;2023-04-07T15:34:19;100784.89;;;11.00;78.47
59417;BME280;45222;52.458;20.914;2023-04-07T15:38:05;100795.41;;;10.86;78.06
59417;BME280;45222;52.458;20.914;2023-04-07T15:41:50;100799.10;;;10.67;77.32
59417;BME280;45222;52.458;20.914;2023-04-07T15:45:35;100810.93;;;10.47;76.65
59417;BME280;45222;52.458;20.914;2023-04-07T15:49:23;100811.19;;;10.31;76.74
59417;BME280;45222;52.458;20.914;2023-04-07T15:53:09;100815.07;;;10.18;76.76
59417;BME280;45222;52.458;20.914;2023-04-07T15:56:54;100816.63;;;10.10;76.84
59417;BME280;45222;52.458;20.914;2023-04-07T16:00:40;100817.81;;;10.03;75.66
59417;BME280;45222;52.458;20.914;2023-04-07T16:04:25;100825.64;;;9.94;76.05
59417;BME280;45222;52.458;20.914;2023-04-07T16:08:10;100829.18;;;9.89;76.31
59417;BME280;45222;52.458;20.914;2023-04-07T16:11:56;100835.63;;;9.88;76.70
59417;BME280;45222;52.458;20.914;2023-04-07T16:15:41;100833.27;;;9.85;76.69
59417;BME280;45222;52.458;20.914;2023-04-07T16:19:28;100841.36;;;9.82;76.35
59417;BME280;45222;52.458;20.914;2023-04-07T16:23:14;100846.51;;;9.77;76.59
59417;BME280;45222;52.458;20.914;2023-04-07T16:26:59;100845.85;;;9.71;76.33
59417;BME280;45222;52.458;20.914;2023-04-07T16:30:45;100849.29;;;9.64;76.48
59417;BME280;45222;52.458;20.914;2023-04-07T16:34:30;100856.72;;;9.60;76.80
59417;BME280;45222;52.458;20.914;2023-04-07T16:38:15;100867.50;;;9.52;76.66
59417;BME280;45222;52.458;20.914;2023-04-07T16:42:01;100873.08;;;9.45;76.83
59417;BME280;45222;52.458;20.914;2023-04-07T16:45:50;100878.30;;;9.37;76.75
59417;BME280;45222;52.458;20.914;2023-04-07T16:49:34;100877.89;;;9.29;76.86
59417;BME280;45222;52.458;20.914;2023-04-07T16:53:21;100883.02;;;9.20;77.05
59417;BME280;45222;52.458;20.914;2023-04-07T16:57:06;100887.80;;;9.14;77.14
59417;BME280;45222;52.458;20.914;2023-04-07T17:00:52;100894.90;;;9.09;77.09
59417;BME280;45222;52.458;20.914;2023-04-07T17:04:37;100904.66;;;9.04;77.36
59417;BME280;45222;52.458;20.914;2023-04-07T17:08:23;100910.03;;;8.97;77.12
59417;BME280;45222;52.458;20.914;2023-04-07T17:12:09;100915.80;;;8.89;77.26
59417;BME280;45222;52.458;20.914;2023-04-07T17:15:54;100920.30;;;8.81;77.31
59417;BME280;45222;52.458;20.914;2023-04-07T17:19:40;100927.34;;;8.71;77.17
59417;BME280;45222;52.458;20.914;2023-04-07T17:23:25;100934.87;;;8.63;76.99
59417;BME280;45222;52.458;20.914;2023-04-07T17:27:12;100942.89;;;8.56;76.99
59417;BME280;45222;52.458;20.914;2023-04-07T17:30:57;100948.09;;;8.47;76.72
59417;BME280;45222;52.458;20.914;2023-04-07T17:34:42;100951.44;;;8.42;76.71
59417;BME280;45222;52.458;20.914;2023-04-07T17:38:27;100961.09;;;8.39;76.67
59417;BME280;45222;52.458;20.914;2023-04-07T17:42:12;100965.98;;;8.36;76.33
59417;BME280;45222;52.458;20.914;2023-04-07T17:45:58;100974.46;;;8.30;75.88
59417;BME280;45222;52.458;20.914;2023-04-07T17:49:43;100978.16;;;8.25;76.00
59417;BME280;45222;52.458;20.914;2023-04-07T17:53:30;100985.39;;;8.20;75.82
59417;BME280;45222;52.458;20.914;2023-04-07T17:57:17;100990.86;;;8.15;75.88
59417;BME280;45222;52.458;20.914;2023-04-07T18:01:02;100995.23;;;8.10;76.06
59417;BME280;45222;52.458;20.914;2023-04-07T18:04:49;101001.88;;;8.08;76.18
59417;BME280;45222;52.458;20.914;2023-04-07T18:08:35;101010.94;;;8.07;76.12
59417;BME280;45222;52.458;20.914;2023-04-07T18:12:21;101019.31;;;8.04;75.98
59417;BME280;45222;52.458;20.914;2023-04-07T18:16:07;101025.27;;;8.01;75.89
59417;BME280;45222;52.458;20.914;2023-04-07T18:19:55;101028.39;;;7.97;75.95
59417;BME280;45222;52.458;20.914;2023-04-07T18:23:41;101029.95;;;7.91;75.88
59417;BME280;45222;52.458;20.914;2023-04-07T18:27:27;101035.65;;;7.90;76.22
59417;BME280;45222;52.458;20.914;2023-04-07T18:31:12;101039.20;;;7.89;76.24
59417;BME280;45222;52.458;20.914;2023-04-07T18:34:59;101046.01;;;7.87;76.15
59417;BME280;45222;52.458;20.914;2023-04-07T18:38:45;101051.44;;;7.82;76.12
59417;BME280;45222;52.458;20.914;2023-04-07T18:42:30;101056.96;;;7.74;76.08
59417;BME280;45222;52.458;20.914;2023-04-07T18:46:16;101062.16;;;7.65;76.11
59417;BME280;45222;52.458;20.914;2023-04-07T18:50:02;101068.88;;;7.58;76.48
59417;BME280;45222;52.458;20.914;2023-04-07T18:53:48;101068.15;;;7.51;76.81
59417;BME280;45222;52.458;20.914;2023-04-07T18:57:34;101071.80;;;7.46;76.83
59417;BME280;45222;52.458;20.914;2023-04-07T19:01:20;101074.08;;;7.40;76.43
59417;BME280;45222;52.458;20.914;2023-04-07T19:05:07;101079.24;;;7.31;76.55
59417;BME280;45222;52.458;20.914;2023-04-07T19:08:52;101081.88;;;7.24;76.47
59417;BME280;45222;52.458;20.914;2023-04-07T19:12:38;101088.54;;;7.19;76.62
59417;BME280;45222;52.458;20.914;2023-04-07T19:16:24;101091.91;;;7.18;77.00
59417;BME280;45222;52.458;20.914;2023-04-07T19:20:09;101100.42;;;7.18;77.01
59417;BME280;45222;52.458;20.914;2023-04-07T19:23:56;101104.54;;;7.16;76.83
59417;BME280;45222;52.458;20.914;2023-04-07T19:27:43;101108.18;;;7.11;76.83
59417;BME280;45222;52.458;20.914;2023-04-07T19:31:28;101108.82;;;7.06;76.77
59417;BME280;45222;52.458;20.914;2023-04-07T19:35:14;101111.73;;;7.03;76.88
59417;BME280;45222;52.458;20.914;2023-04-07T19:38:59;101115.33;;;7.00;77.01
59417;BME280;45222;52.458;20.914;2023-04-07T19:42:45;101121.31;;;7.01;77.42